Time;durP1;ratioP1;P1;durP2;ratioP2;P2;SDS_P1;SDS_P2;PMS_P1;PMS_P2;Temp;Humidity;BMP_temperature;BMP_pressure;BME280_temperature;BME280_humidity;BME280_pressure;Samples;Min_cycle;Max_cycle;Signal;HPM_P1;HPM_P2
2022/03/16 00:00:46;;;;;;;33.75;17.15;;;;;;;7.83;76.82;102356.44;5051159;28;20110;-46
2022/03/16 00:03:11;;;;;;;36.15;17.42;;;;;;;7.82;77.09;102352.91;5040446;28;20032;-47
2022/03/16 00:05:37;;;;;;;34.33;18.25;;;;;;;7.87;77.06;102356.06;5041805;28;20384;-44
2022/03/16 00:08:02;;;;;;;32.75;17.30;;;;;;;7.89;76.65;102353.25;5050590;28;20424;-47
2022/03/16 00:10:27;;;;;;;34.90;17.65;;;;;;;7.88;76.58;102351.56;5051026;28;20028;-48
2022/03/16 00:12:53;;;;;;;32.90;16.60;;;;;;;7.88;76.69;102352.41;5045669;28;20028;-46
2022/03/16 00:15:18;;;;;;;41.25;18.23;;;;;;;7.83;76.90;102353.75;5050434;28;20036;-44
2022/03/16 00:17:43;;;;;;;34.42;17.17;;;;;;;7.80;77.50;102357.53;5051262;28;20063;-44
2022/03/16 00:20:09;;;;;;;37.88;19.02;;;;;;;7.81;77.04;102356.56;5051006;28;20075;-44
2022/03/16 00:22:35;;;;;;;37.00;19.30;;;;;;;7.82;76.93;102357.41;5051681;28;20116;-45
2022/03/16 00:25:01;;;;;;;38.08;18.55;;;;;;;7.84;76.66;102350.94;5051839;28;20056;-45
2022/03/16 00:27:27;;;;;;;40.97;19.42;;;;;;;7.86;76.85;102356.19;5050544;28;20721;-45
2022/03/16 00:29:52;;;;;;;45.95;19.92;;;;;;;7.79;77.04;102357.66;5051283;28;20083;-49
2022/03/16 00:32:17;;;;;;;37.55;18.90;;;;;;;7.75;77.19;102357.06;5033133;28;20030;-45
2022/03/16 00:34:43;;;;;;;41.42;19.92;;;;;;;7.72;77.30;102359.16;5051647;28;20020;-43
2022/03/16 00:37:08;;;;;;;35.25;18.90;;;;;;;7.67;77.33;102360.38;5051012;28;20140;-49
2022/03/16 00:39:34;;;;;;;37.15;18.02;;;;;;;7.62;77.33;102356.38;5049597;28;20104;-46
2022/03/16 00:41:59;;;;;;;36.00;18.55;;;;;;;7.59;77.77;102354.81;5049529;28;20341;-46
2022/03/16 00:44:25;;;;;;;37.30;18.17;;;;;;;7.60;77.96;102353.81;5049540;28;20025;-49
2022/03/16 00:46:51;;;;;;;35.10;17.17;;;;;;;7.64;77.68;102354.44;5050962;28;20044;-47
2022/03/16 00:49:16;;;;;;;37.60;18.65;;;;;;;7.62;77.30;102362.59;5052924;28;20040;-48
2022/03/16 00:51:41;;;;;;;34.28;17.40;;;;;;;7.53;77.58;102357.13;5054895;28;20035;-44
2022/03/16 00:54:07;;;;;;;40.45;17.80;;;;;;;7.54;77.51;102362.34;5053532;28;20021;-48
2022/03/16 00:56:32;;;;;;;39.25;17.80;;;;;;;7.51;77.86;102359.09;5054829;28;20033;-46
2022/03/16 00:58:57;;;;;;;37.70;17.50;;;;;;;7.53;77.60;102360.66;5049981;28;20400;-47
2022/03/16 01:01:23;;;;;;;35.85;17.55;;;;;;;7.45;78.33;102349.69;5034211;28;20021;-46
2022/03/16 01:03:48;;;;;;;37.20;17.02;;;;;;;7.39;78.02;102347.53;5034983;28;20079;-46
2022/03/16 01:06:15;;;;;;;35.22;17.42;;;;;;;7.33;78.22;102343.53;5033843;28;20087;-46
2022/03/16 01:08:43;;;;;;;41.75;17.35;;;;;;;7.35;78.45;102346.09;5050995;28;20041;-45
2022/03/16 01:11:10;;;;;;;34.95;16.98;;;;;;;7.35;78.61;102341.56;5055263;28;20025;-46
2022/03/16 01:13:35;;;;;;;38.45;18.00;;;;;;;7.36;78.86;102334.38;5054957;28;20052;-48
2022/03/16 01:16:00;;;;;;;38.00;17.00;;;;;;;7.40;78.23;102341.22;5054291;28;20078;-45
2022/03/16 01:18:26;;;;;;;37.17;18.27;;;;;;;7.36;78.14;102335.22;5054481;28;20471;-46
2022/03/16 01:20:51;;;;;;;34.00;17.15;;;;;;;7.29;78.19;102343.88;5054334;28;20060;-46
2022/03/16 01:23:16;;;;;;;38.95;17.75;;;;;;;7.24;78.42;102337.09;5054292;28;20039;-45
2022/03/16 01:25:42;;;;;;;40.97;18.48;;;;;;;7.21;79.07;102341.81;5043381;28;20033;-46
2022/03/16 01:28:07;;;;;;;34.90;17.52;;;;;;;7.28;79.19;102336.84;5038286;28;20029;-46
2022/03/16 01:30:32;;;;;;;35.25;17.85;;;;;;;7.22;78.85;102347.06;5050502;28;20025;-45
2022/03/16 01:32:57;;;;;;;40.42;18.30;;;;;;;7.18;79.35;102337.56;5054347;28;20044;-47
2022/03/16 01:35:23;;;;;;;39.78;18.60;;;;;;;7.18;79.40;102340.25;5052977;28;20483;-46
2022/03/16 01:37:48;;;;;;;36.28;18.27;;;;;;;7.17;79.42;102341.22;5053914;28;20025;-45
2022/03/16 01:40:14;;;;;;;37.42;18.67;;;;;;;7.11;79.68;102336.38;5052667;28;20017;-48
2022/03/16 01:42:40;;;;;;;38.25;18.92;;;;;;;7.06;79.87;102333.22;5052865;28;20117;-46
2022/03/16 01:45:06;;;;;;;37.10;19.13;;;;;;;7.11;79.65;102341.72;5053522;28;20037;-44
2022/03/16 01:47:31;;;;;;;36.92;18.30;;;;;;;7.15;78.93;102336.97;5053519;28;20391;-46
2022/03/16 01:49:56;;;;;;;40.38;18.02;;;;;;;7.22;78.45;102331.00;5053405;28;20506;-45
2022/03/16 01:52:24;;;;;;;36.60;18.30;;;;;;;7.21;78.31;102325.75;5053483;28;20468;-45
2022/03/16 01:54:50;;;;;;;37.30;18.30;;;;;;;7.26;78.01;102329.75;5053311;28;20116;-47
2022/03/16 01:57:15;;;;;;;36.17;18.00;;;;;;;7.15;78.20;102326.25;5051778;28;20512;-47
2022/03/16 01:59:41;;;;;;;32.95;17.00;;;;;;;7.18;78.20;102324.16;5050950;28;20032;-45
2022/03/16 02:02:06;;;;;;;35.67;17.40;;;;;;;7.10;78.65;102326.63;5035054;28;20056;-46
2022/03/16 02:04:32;;;;;;;30.27;17.10;;;;;;;7.05;78.83;102331.47;5047272;28;20029;-46
2022/03/16 02:06:58;;;;;;;37.67;18.48;;;;;;;7.06;78.85;102322.50;5044987;28;20361;-49
2022/03/16 02:09:24;;;;;;;34.85;17.27;;;;;;;7.06;78.53;102327.84;5052025;28;20041;-46
2022/03/16 02:11:49;;;;;;;37.85;18.20;;;;;;;7.03;79.07;102322.75;5053127;28;20040;-46
2022/03/16 02:14:14;;;;;;;34.95;18.00;;;;;;;7.07;79.09;102308.13;5053116;28;20057;-46
2022/03/16 02:16:40;;;;;;;36.55;18.52;;;;;;;7.09;78.89;102310.69;5032562;28;20120;-47
2022/03/16 02:19:05;;;;;;;35.90;18.58;;;;;;;7.03;79.33;102299.50;5048853;28;20029;-46
2022/03/16 02:21:31;;;;;;;33.78;18.33;;;;;;;6.95;79.42;102288.56;5050479;28;20067;-47
2022/03/16 02:23:56;;;;;;;34.58;18.17;;;;;;;6.91;79.86;102291.59;5052392;28;20036;-45
2022/03/16 02:26:26;;;;;;;39.08;19.90;;;;;;;6.88;79.80;102303.41;5052785;28;20451;-46
2022/03/16 02:28:51;;;;;;;38.55;19.42;;;;;;;6.85;79.92;102294.78;5021117;28;20033;-45
2022/03/16 02:31:17;;;;;;;40.53;20.50;;;;;;;6.82;80.20;102294.03;5051294;28;20017;-48
2022/03/16 02:33:43;;;;;;;37.00;18.83;;;;;;;6.74;80.10;102290.25;5052449;28;20033;-46
2022/03/16 02:36:09;;;;;;;42.40;20.15;;;;;;;6.71;80.55;102295.84;5052072;28;20486;-47
2022/03/16 02:38:34;;;;;;;40.75;21.05;;;;;;;6.60;80.69;102292.19;5046961;28;20382;-46
2022/03/16 02:41:00;;;;;;;47.20;22.02;;;;;;;6.53;81.35;102300.81;5051674;28;20025;-49
2022/03/16 02:43:25;;;;;;;38.67;21.27;;;;;;;6.51;81.49;102300.09;5052451;28;20124;-45
2022/03/16 02:45:51;;;;;;;43.25;22.83;;;;;;;6.44;81.78;102298.88;5052123;28;20032;-47
2022/03/16 02:48:16;;;;;;;46.05;23.67;;;;;;;6.41;81.96;102296.44;5041508;28;20488;-45
2022/03/16 02:50:41;;;;;;;46.85;23.30;;;;;;;6.33;82.40;102292.53;5042037;28;20503;-44
2022/03/16 02:53:07;;;;;;;42.65;23.95;;;;;;;6.35;82.42;102300.44;5049696;28;20024;-45
2022/03/16 02:55:32;;;;;;;50.35;24.92;;;;;;;6.35;82.68;102289.75;5052120;28;20035;-44
2022/03/16 02:57:58;;;;;;;50.92;25.27;;;;;;;6.29;83.06;102296.41;5052513;28;20067;-45
2022/03/16 03:00:26;;;;;;;52.33;25.50;;;;;;;6.25;83.24;102292.25;5042443;28;20033;-47
2022/03/16 03:02:53;;;;;;;52.97;26.95;;;;;;;6.14;83.66;102298.44;5052998;28;20074;-44
2022/03/16 03:05:24;;;;;;;49.78;24.92;;;;;;;6.13;84.06;102295.88;5051958;28;20032;-44
2022/03/16 03:07:49;;;;;;;50.58;26.38;;;;;;;6.15;84.14;102288.59;5051911;28;20037;-44
2022/03/16 03:10:14;;;;;;;53.17;28.05;;;;;;;6.10;84.08;102290.75;5051499;28;20047;-46
2022/03/16 03:12:40;;;;;;;50.67;26.98;;;;;;;6.14;84.25;102282.41;5052321;28;20343;-46
2022/03/16 03:15:09;;;;;;;54.13;26.85;;;;;;;6.08;84.30;102282.88;5052134;28;20029;-46
2022/03/16 03:17:35;;;;;;;57.03;27.35;;;;;;;6.11;84.07;102287.97;5052402;28;20027;-45
2022/03/16 03:20:00;;;;;;;54.85;27.13;;;;;;;6.15;84.14;102283.25;5047136;28;20484;-44
2022/03/16 03:22:27;;;;;;;55.67;27.60;;;;;;;6.07;84.34;102285.66;5043792;28;20111;-45
2022/03/16 03:24:53;;;;;;;55.60;26.52;;;;;;;6.14;84.25;102270.88;5052463;28;20036;-45
2022/03/16 03:27:19;;;;;;;61.08;28.48;;;;;;;6.17;84.31;102264.44;5035183;28;20472;-44
2022/03/16 03:29:44;;;;;;;54.58;27.33;;;;;;;6.12;84.17;102270.13;5051113;28;20162;-46
2022/03/16 03:32:09;;;;;;;56.10;27.70;;;;;;;6.08;84.50;102263.28;5050520;28;20063;-46
2022/03/16 03:34:34;;;;;;;57.80;28.38;;;;;;;6.03;84.58;102260.13;5051409;28;20059;-46
2022/03/16 03:37:00;;;;;;;56.05;29.15;;;;;;;6.02;84.72;102263.78;5051278;28;20032;-46
2022/03/16 03:39:26;;;;;;;60.63;28.98;;;;;;;6.00;85.06;102265.69;5050862;28;20111;-49
2022/03/16 03:41:51;;;;;;;57.42;29.25;;;;;;;6.00;84.84;102260.34;5051176;28;20021;-46
2022/03/16 03:44:16;;;;;;;54.13;28.17;;;;;;;6.01;85.25;102256.75;5051388;28;20515;-45
2022/03/16 03:46:42;;;;;;;55.08;27.17;;;;;;;6.01;84.95;102254.06;5051020;28;20108;-46
2022/03/16 03:49:07;;;;;;;54.53;27.30;;;;;;;6.04;84.83;102272.53;5051245;28;20369;-45
2022/03/16 03:51:32;;;;;;;51.58;27.42;;;;;;;6.04;84.72;102265.34;5050950;28;20103;-48
2022/03/16 03:53:58;;;;;;;50.55;24.38;;;;;;;6.02;84.59;102264.63;5051332;28;20029;-48
2022/03/16 03:56:23;;;;;;;45.22;24.40;;;;;;;6.01;84.09;102265.59;5050763;28;20041;-46
2022/03/16 03:58:48;;;;;;;43.15;23.30;;;;;;;6.04;83.89;102275.22;5051005;28;20094;-44
2022/03/16 04:01:15;;;;;;;42.17;22.23;;;;;;;6.04;83.33;102268.03;5039190;28;20037;-45
2022/03/16 04:03:42;;;;;;;36.97;21.05;;;;;;;6.05;83.21;102260.88;5051227;28;20430;-46
2022/03/16 04:06:08;;;;;;;39.25;20.15;;;;;;;6.10;82.48;102256.88;5050699;28;20029;-44
2022/03/16 04:08:34;;;;;;;37.10;19.90;;;;;;;6.12;82.31;102259.44;5051070;28;20049;-45
2022/03/16 04:10:59;;;;;;;35.60;19.83;;;;;;;6.12;82.22;102259.44;5050500;28;20074;-44
2022/03/16 04:13:24;;;;;;;37.47;20.80;;;;;;;6.03;82.27;102263.66;5050206;28;20037;-46
2022/03/16 04:15:50;;;;;;;38.20;19.25;;;;;;;6.03;82.27;102262.78;5051002;28;20383;-44
2022/03/16 04:18:15;;;;;;;42.72;20.15;;;;;;;5.94;82.95;102267.03;5050923;28;20496;-44
2022/03/16 04:20:40;;;;;;;40.72;22.00;;;;;;;5.92;82.84;102272.47;5050267;28;20541;-45
2022/03/16 04:23:06;;;;;;;43.22;23.85;;;;;;;5.90;82.96;102277.06;5050478;28;20091;-45
2022/03/16 04:25:31;;;;;;;41.70;24.33;;;;;;;5.88;82.97;102271.00;5050900;28;20036;-46
2022/03/16 04:27:56;;;;;;;43.38;22.98;;;;;;;5.80;83.25;102280.56;5051081;28;20036;-45
2022/03/16 04:30:22;;;;;;;41.05;23.40;;;;;;;5.76;83.70;102271.91;5050572;28;20039;-46
2022/03/16 04:32:51;;;;;;;48.22;24.33;;;;;;;5.80;83.86;102267.19;5050990;28;20325;-46
2022/03/16 04:35:17;;;;;;;47.13;25.05;;;;;;;5.73;83.92;102272.13;5050836;28;20033;-45
2022/03/16 04:37:42;;;;;;;47.30;25.20;;;;;;;5.65;84.38;102277.22;5050330;28;20037;-44
2022/03/16 04:40:08;;;;;;;43.70;24.75;;;;;;;5.62;84.49;102275.63;5050315;28;20361;-44
2022/03/16 04:42:33;;;;;;;51.63;24.52;;;;;;;5.50;84.38;102273.84;5046989;28;20749;-45
2022/03/16 04:44:59;;;;;;;50.08;26.48;;;;;;;5.45;85.13;102259.97;5045759;28;20373;-45
2022/03/16 04:47:24;;;;;;;51.15;26.48;;;;;;;5.47;85.30;102263.41;5065169;28;20352;-43
2022/03/16 04:49:49;;;;;;;49.53;25.88;;;;;;;5.39;85.60;102261.28;5050714;28;20036;-45
2022/03/16 04:52:15;;;;;;;50.97;26.35;;;;;;;5.37;85.79;102260.56;5050573;28;20436;-43
2022/03/16 04:54:40;;;;;;;50.58;25.52;;;;;;;5.33;85.93;102253.75;5047967;28;20049;-44
2022/03/16 04:57:05;;;;;;;46.58;26.00;;;;;;;5.27;85.97;102249.72;5047778;28;20036;-46
2022/03/16 04:59:31;;;;;;;49.75;26.25;;;;;;;5.23;86.42;102245.56;5039227;28;20307;-43
2022/03/16 05:01:56;;;;;;;50.38;25.35;;;;;;;5.22;86.89;102245.69;5049839;28;20021;-46
2022/03/16 05:04:24;;;;;;;47.42;25.85;;;;;;;5.23;86.54;102244.72;5037007;28;20483;-47
2022/03/16 05:06:49;;;;;;;47.10;26.35;;;;;;;5.26;86.87;102252.50;5048204;28;20530;-46
2022/03/16 05:09:14;;;;;;;48.20;26.15;;;;;;;5.18;86.52;102246.84;5048257;28;20083;-45
2022/03/16 05:11:42;;;;;;;47.80;25.58;;;;;;;5.20;87.03;102252.94;5049089;28;20069;-49
2022/03/16 05:14:09;;;;;;;47.75;25.33;;;;;;;5.20;87.11;102252.94;5048742;28;20493;-45
2022/03/16 05:16:35;;;;;;;47.75;25.95;;;;;;;5.25;86.98;102256.13;5049927;28;20029;-45
2022/03/16 05:19:00;;;;;;;47.30;25.27;;;;;;;5.21;87.09;102239.50;5047396;28;20033;-47
2022/03/16 05:21:26;;;;;;;50.17;25.92;;;;;;;5.20;86.75;102237.78;5048883;28;20041;-46
2022/03/16 05:23:51;;;;;;;48.38;26.55;;;;;;;5.22;87.06;102251.88;5050360;28;20086;-45
2022/03/16 05:26:16;;;;;;;49.97;26.20;;;;;;;5.10;87.02;102243.91;5049834;28;20025;-45
2022/03/16 05:28:42;;;;;;;50.58;25.70;;;;;;;5.07;87.13;102251.16;5049056;28;20045;-44
2022/03/16 05:31:07;;;;;;;46.20;25.48;;;;;;;5.12;87.59;102244.66;5037700;28;20120;-46
2022/03/16 05:33:33;;;;;;;47.53;26.10;;;;;;;5.10;87.21;102244.75;5030171;28;20036;-43
2022/03/16 05:35:58;;;;;;;46.08;25.33;;;;;;;5.09;87.01;102245.72;5045804;28;20030;-47
2022/03/16 05:38:24;;;;;;;48.72;26.23;;;;;;;5.03;87.29;102239.03;5053362;28;20039;-45
2022/03/16 05:40:49;;;;;;;51.60;26.25;;;;;;;5.03;87.43;102247.03;5053820;28;20017;-45
2022/03/16 05:43:14;;;;;;;49.05;26.23;;;;;;;5.13;87.67;102244.53;5053748;28;20033;-48
2022/03/16 05:45:40;;;;;;;46.85;25.83;;;;;;;5.11;87.52;102240.25;5053197;28;20032;-46
2022/03/16 05:48:05;;;;;;;59.35;28.30;;;;;;;5.10;87.02;102236.75;5053238;28;20025;-45
2022/03/16 05:50:31;;;;;;;49.53;26.30;;;;;;;5.11;87.12;102245.59;5053458;28;20668;-45
2022/03/16 05:52:57;;;;;;;46.05;26.23;;;;;;;5.10;87.10;102242.09;5053656;28;20033;-45
2022/03/16 05:55:22;;;;;;;49.47;27.48;;;;;;;5.11;86.97;102254.47;5044739;28;20128;-44
2022/03/16 05:57:49;;;;;;;51.55;28.33;;;;;;;5.04;87.29;102246.06;5053700;28;20029;-47
2022/03/16 06:00:16;;;;;;;57.08;26.80;;;;;;;5.02;87.39;102253.31;5053989;28;20288;-46
2022/03/16 06:02:44;;;;;;;53.33;27.92;;;;;;;5.03;87.95;102251.53;5053246;28;20127;-47
2022/03/16 06:05:10;;;;;;;51.53;28.40;;;;;;;5.02;87.51;102247.13;5064340;28;20033;-46
2022/03/16 06:07:37;;;;;;;53.70;29.02;;;;;;;5.04;87.61;102255.88;5052937;28;20530;-45
2022/03/16 06:10:06;;;;;;;55.13;29.25;;;;;;;5.10;87.38;102241.25;5068337;28;20009;-45
2022/03/16 06:12:32;;;;;;;59.83;27.48;;;;;;;5.10;87.65;102246.56;5054058;28;20437;-47
2022/03/16 06:14:57;;;;;;;53.58;26.95;;;;;;;5.05;87.14;102249.56;5044447;28;20031;-47
2022/03/16 06:17:23;;;;;;;55.78;28.52;;;;;;;5.13;87.58;102243.69;5052139;28;20028;-47
2022/03/16 06:19:48;;;;;;;51.42;27.33;;;;;;;5.11;87.45;102240.25;5049202;28;20065;-49
2022/03/16 06:22:14;;;;;;;49.00;28.38;;;;;;;5.09;87.27;102247.56;5052732;28;20075;-44
2022/03/16 06:24:39;;;;;;;60.75;29.38;;;;;;;5.08;87.04;102244.00;5018684;28;20033;-46
2022/03/16 06:27:04;;;;;;;55.70;28.02;;;;;;;5.16;87.19;102248.78;5054048;28;20040;-45
2022/03/16 06:29:29;;;;;;;56.03;28.88;;;;;;;5.15;87.50;102253.28;5053101;28;20061;-46
2022/03/16 06:31:55;;;;;;;48.08;26.63;;;;;;;5.18;86.97;102262.88;5045311;28;20021;-46
2022/03/16 06:34:20;;;;;;;52.65;28.27;;;;;;;5.22;87.06;102256.38;5053471;28;20051;-45
2022/03/16 06:36:45;;;;;;;57.80;28.60;;;;;;;5.23;86.89;102250.06;5052677;28;20029;-45
2022/03/16 06:39:11;;;;;;;54.30;28.27;;;;;;;5.27;86.95;102259.56;5051935;28;20479;-44
2022/03/16 06:41:36;;;;;;;48.20;27.77;;;;;;;5.57;86.31;102245.72;5034392;28;20040;-47
2022/03/16 06:44:02;;;;;;;51.67;27.80;;;;;;;5.92;85.00;102255.56;5052810;28;20044;-46
2022/03/16 06:46:27;;;;;;;49.42;26.77;;;;;;;5.97;83.46;102252.59;5067695;28;20032;-44
2022/03/16 06:48:53;;;;;;;48.60;26.67;;;;;;;6.20;83.34;102248.16;5067428;28;20040;-45
2022/03/16 06:51:18;;;;;;;49.17;28.55;;;;;;;6.36;82.19;102249.50;5052701;28;20086;-46
2022/03/16 06:53:43;;;;;;;47.38;26.90;;;;;;;6.66;81.30;102256.09;5051624;28;20056;-44
2022/03/16 06:56:09;;;;;;;43.33;25.92;;;;;;;7.17;79.47;102250.19;5052357;28;20037;-47
2022/03/16 06:58:35;;;;;;;45.75;24.33;;;;;;;7.11;78.29;102255.19;5052629;28;20044;-49
2022/03/16 07:01:00;;;;;;;40.53;23.23;;;;;;;7.09;78.14;102268.72;5034431;28;20056;-45
2022/03/16 07:03:25;;;;;;;43.83;24.95;;;;;;;7.25;77.85;102269.16;5051128;28;20033;-46
2022/03/16 07:05:51;;;;;;;43.63;23.80;;;;;;;7.32;77.06;102279.34;5052527;28;20087;-50
2022/03/16 07:08:16;;;;;;;40.90;24.83;;;;;;;7.37;77.23;102277.16;5067277;28;20060;-45
2022/03/16 07:10:43;;;;;;;41.20;23.70;;;;;;;7.50;77.05;102279.69;5053176;28;20396;-46
2022/03/16 07:13:11;;;;;;;38.63;23.13;;;;;;;7.82;75.65;102277.88;5052977;28;20078;-48
2022/03/16 07:15:38;;;;;;;36.05;22.35;;;;;;;7.85;74.55;102271.41;5069213;28;20025;-48
2022/03/16 07:18:04;;;;;;;39.03;22.00;;;;;;;7.79;74.63;102258.50;5053486;28;20143;-46
2022/03/16 07:20:30;;;;;;;41.10;23.42;;;;;;;8.03;74.18;102253.75;5053519;28;20062;-46
2022/03/16 07:23:25;;;;;;;39.03;22.02;;;;;;;8.15;73.44;102246.47;5054232;28;20105;-46
2022/03/16 07:25:51;;;;;;;41.45;21.38;;;;;;;7.95;74.22;102256.22;5039965;28;20143;-49
2022/03/16 07:28:18;;;;;;;40.75;22.00;;;;;;;8.38;73.38;102240.97;5064112;28;20467;-46
2022/03/16 07:30:43;;;;;;;35.63;21.52;;;;;;;8.65;72.52;102238.59;5065508;28;20029;-50
2022/03/16 07:33:09;;;;;;;37.08;20.95;;;;;;;8.60;71.94;102245.34;5066669;28;20067;-50
2022/03/16 07:35:35;;;;;;;32.95;20.08;;;;;;;8.98;70.98;102231.22;5065829;28;20056;-48
2022/03/16 07:38:02;;;;;;;32.60;19.75;;;;;;;9.23;70.22;102243.28;5049730;28;21220;-46
2022/03/16 07:40:29;;;;;;;35.47;19.77;;;;;;;9.70;68.91;102234.53;5042931;28;20033;-46
2022/03/16 07:42:54;;;;;;;29.27;19.00;;;;;;;10.10;66.20;102231.66;5058191;28;20029;-49
2022/03/16 07:45:20;;;;;;;28.45;17.67;;;;;;;10.27;65.96;102233.63;5061760;28;20032;-51
2022/03/16 07:47:46;;;;;;;29.58;19.25;;;;;;;10.36;65.45;102231.91;5064660;28;20109;-48
2022/03/16 07:50:11;;;;;;;25.95;16.90;;;;;;;10.89;63.53;102239.31;5054032;28;20578;-51
2022/03/16 07:52:37;;;;;;;28.83;18.67;;;;;;;10.65;63.33;102245.25;5062076;28;20094;-46
2022/03/16 07:55:03;;;;;;;40.28;18.27;;;;;;;10.35;64.18;102237.41;5063908;28;20040;-45
2022/03/16 07:57:28;;;;;;;28.88;16.55;;;;;;;10.02;64.70;102234.22;5048728;28;20041;-48
2022/03/16 07:59:55;;;;;;;26.83;17.20;;;;;;;10.37;63.97;102236.28;5049202;28;20050;-50
2022/03/16 08:02:20;;;;;;;29.48;16.25;;;;;;;10.44;63.65;102228.47;5066781;28;20025;-45
2022/03/16 08:04:45;;;;;;;29.27;16.50;;;;;;;9.94;65.03;102231.41;5061698;28;20060;-46
2022/03/16 08:07:11;;;;;;;28.30;15.90;;;;;;;9.30;67.19;102241.75;5057285;28;20035;-45
2022/03/16 08:09:36;;;;;;;27.05;17.05;;;;;;;8.52;69.83;102222.69;5057458;28;20146;-45
2022/03/16 08:12:02;;;;;;;28.23;17.45;;;;;;;8.65;70.94;102227.00;5053079;28;20029;-46
2022/03/16 08:14:27;;;;;;;33.53;17.15;;;;;;;8.52;70.30;102224.53;5054945;28;20025;-47
2022/03/16 08:16:53;;;;;;;29.92;17.42;;;;;;;8.88;69.74;102235.72;5052851;28;20403;-48
2022/03/16 08:19:19;;;;;;;25.85;15.82;;;;;;;9.28;69.03;102232.97;5055376;28;20133;-45
2022/03/16 08:21:45;;;;;;;25.23;15.75;;;;;;;9.77;66.54;102223.09;5052273;28;20029;-46
2022/03/16 08:24:10;;;;;;;22.77;15.35;;;;;;;11.12;63.88;102203.91;5062763;28;20005;-46
2022/03/16 08:26:35;;;;;;;19.05;13.65;;;;;;;11.69;60.47;102190.97;5070214;28;20017;-48
2022/03/16 08:29:01;;;;;;;22.52;14.43;;;;;;;12.01;59.18;102193.09;5071372;28;20055;-45
2022/03/16 08:31:26;;;;;;;22.48;13.68;;;;;;;12.57;58.40;102195.41;5067753;28;20081;-45
2022/03/16 08:33:51;;;;;;;22.17;13.50;;;;;;;12.72;56.68;102196.50;5071964;28;20028;-44
2022/03/16 08:36:17;;;;;;;24.05;13.65;;;;;;;13.01;55.50;102203.34;5069816;28;20021;-44
2022/03/16 08:38:42;;;;;;;26.27;14.05;;;;;;;12.41;56.90;102199.72;5072881;28;20017;-44
2022/03/16 08:41:08;;;;;;;23.73;13.48;;;;;;;11.62;58.79;102214.16;5073367;28;20044;-45
2022/03/16 08:43:34;;;;;;;23.08;12.93;;;;;;;11.90;58.57;102212.25;5073992;28;20017;-45
2022/03/16 08:46:00;;;;;;;18.45;12.40;;;;;;;11.86;57.93;102217.09;5071854;28;20027;-44
2022/03/16 08:48:26;;;;;;;18.00;13.40;;;;;;;12.06;57.71;102209.66;5072487;28;20039;-45
2022/03/16 08:50:51;;;;;;;21.67;14.00;;;;;;;11.97;58.59;102215.97;5073060;28;20291;-47
2022/03/16 08:53:16;;;;;;;20.27;12.48;;;;;;;12.87;56.66;102205.66;5074212;28;20037;-46
2022/03/16 08:55:42;;;;;;;19.80;12.10;;;;;;;13.84;53.50;102211.41;5067924;28;20096;-47
2022/03/16 08:58:07;;;;;;;17.85;11.43;;;;;;;14.11;51.86;102215.59;5070501;28;20043;-49
2022/03/16 09:00:33;;;;;;;22.60;11.57;;;;;;;14.53;51.87;102219.94;5058474;28;20068;-45
2022/03/16 09:02:58;;;;;;;16.13;11.90;;;;;;;14.37;51.17;102219.94;5074162;28;20037;-44
2022/03/16 09:05:24;;;;;;;18.52;11.48;;;;;;;14.49;51.03;102213.16;5073503;28;20081;-46
2022/03/16 09:07:50;;;;;;;24.08;11.38;;;;;;;14.37;50.16;102214.53;5070872;28;20033;-46
2022/03/16 09:10:15;;;;;;;16.42;10.63;;;;;;;13.24;52.96;102227.88;5076897;28;20043;-45
2022/03/16 09:12:40;;;;;;;19.95;11.70;;;;;;;12.43;55.31;102216.63;5078433;28;20037;-42
2022/03/16 09:15:07;;;;;;;16.10;11.68;;;;;;;13.14;54.20;102214.53;5077373;28;20096;-43
2022/03/16 09:17:33;;;;;;;18.58;11.43;;;;;;;13.17;54.29;102204.22;5077273;28;20023;-45
2022/03/16 09:19:58;;;;;;;16.23;11.60;;;;;;;13.82;52.87;102211.59;5072181;28;20025;-47
2022/03/16 09:22:24;;;;;;;15.13;11.10;;;;;;;14.29;51.09;102207.28;5075374;28;20039;-44
2022/03/16 09:24:50;;;;;;;16.73;11.00;;;;;;;14.83;49.77;102204.75;5077406;28;20037;-44
2022/03/16 09:27:19;;;;;;;16.40;11.63;;;;;;;14.86;49.76;102203.56;5078362;28;20021;-48
2022/03/16 09:29:46;;;;;;;15.40;10.80;;;;;;;15.35;48.56;102198.69;5069141;28;20029;-45
2022/03/16 09:32:13;;;;;;;15.73;11.77;;;;;;;14.12;50.99;102209.19;5069561;28;20021;-44
2022/03/16 09:34:40;;;;;;;21.75;11.27;;;;;;;14.13;51.48;102205.44;5076600;28;20518;-43
2022/03/16 09:37:06;;;;;;;16.35;10.48;;;;;;;13.60;52.02;102194.16;5077180;28;20020;-44
2022/03/16 09:39:32;;;;;;;18.67;11.10;;;;;;;13.34;53.21;102197.00;5075912;28;20056;-41
2022/03/16 09:41:58;;;;;;;18.40;10.98;;;;;;;13.49;53.16;102190.97;5077478;28;20041;-47
2022/03/16 09:44:24;;;;;;;14.88;11.02;;;;;;;12.84;54.61;102187.06;5066624;28;20033;-47
2022/03/16 09:46:52;;;;;;;24.23;11.70;;;;;;;12.68;55.29;102179.75;5062055;28;20036;-48
2022/03/16 09:49:17;;;;;;;20.63;10.93;;;;;;;12.88;54.80;102188.44;5068800;28;20324;-47
2022/03/16 09:51:43;;;;;;;19.40;10.35;;;;;;;12.83;54.29;102198.91;5070000;28;20069;-49
2022/03/16 09:54:08;;;;;;;14.88;10.48;;;;;;;12.84;55.02;102178.13;5072391;28;20029;-45
2022/03/16 09:56:34;;;;;;;14.98;9.80;;;;;;;12.45;55.61;102186.75;5069962;28;20091;-47
2022/03/16 09:59:00;;;;;;;16.13;10.68;;;;;;;12.42;56.24;102174.41;5066570;28;20067;-47
2022/03/16 10:01:25;;;;;;;18.58;11.10;;;;;;;12.43;56.29;102170.72;5072105;28;20105;-49
2022/03/16 10:03:52;;;;;;;14.57;10.60;;;;;;;12.29;56.35;102182.09;5075838;28;20017;-44
2022/03/16 10:06:22;;;;;;;14.52;9.95;;;;;;;12.66;56.23;102179.06;5074921;28;20025;-46
2022/03/16 10:14:15;;;;;;;14.93;9.88;;;;;;;13.00;54.48;102183.56;5071503;28;20051;-44
2022/03/16 10:19:48;;;;;;;15.93;11.00;;;;;;;12.52;56.42;102175.13;5068208;28;20063;-45
2022/03/16 10:22:21;;;;;;;17.63;10.82;;;;;;;12.21;57.75;102171.25;5071953;28;20112;-45
2022/03/16 10:24:46;;;;;;;16.10;11.00;;;;;;;11.96;57.79;102173.81;5076170;28;20064;-44
2022/03/16 10:27:11;;;;;;;22.05;12.50;;;;;;;11.48;59.86;102174.25;5074685;28;20119;-44
2022/03/16 10:29:36;;;;;;;16.08;11.60;;;;;;;12.03;59.60;102171.31;5073349;28;20090;-45
2022/03/16 10:32:04;;;;;;;17.77;12.02;;;;;;;12.18;58.50;102168.88;5066801;28;20101;-46
2022/03/16 10:34:30;;;;;;;16.77;10.90;;;;;;;12.75;57.22;102169.16;5058823;28;20028;-45
2022/03/16 10:36:59;;;;;;;14.65;9.82;;;;;;;13.67;54.16;102167.28;5060172;28;20025;-46
2022/03/16 10:39:34;;;;;;;15.15;10.80;;;;;;;13.22;54.31;102159.63;5059056;28;20048;-45
2022/03/16 10:48:01;;;;;;;;;;;;;;;13.88;53.87;102160.50;5057053;28;20040;-47
2022/03/16 10:50:26;;;;;;;15.30;10.55;;;;;;;13.90;53.10;102159.31;5065896;28;19920;-45
2022/03/16 10:52:53;;;;;;;14.18;9.63;;;;;;;13.25;54.20;102162.84;5067323;28;20077;-45
2022/03/16 10:55:22;;;;;;;15.77;10.32;;;;;;;12.92;55.72;102160.06;5075832;28;20048;-45
2022/03/16 10:57:51;;;;;;;17.70;10.55;;;;;;;13.05;55.49;102164.16;5075049;28;20053;-45
2022/03/16 11:00:17;;;;;;;14.50;10.82;;;;;;;13.60;54.58;102153.59;5066818;28;20051;-46
2022/03/16 11:02:44;;;;;;;16.33;10.63;;;;;;;13.25;54.91;102143.94;5076096;28;20033;-47
2022/03/16 11:05:10;;;;;;;13.77;10.32;;;;;;;12.93;56.00;102152.84;5075471;28;20084;-47
2022/03/16 11:07:36;;;;;;;18.85;10.50;;;;;;;12.59;56.98;102142.09;5073418;28;20376;-45
2022/03/16 11:10:03;;;;;;;17.50;11.05;;;;;;;12.83;57.24;102155.66;5074903;28;20015;-44
2022/03/16 11:15:14;;;;;;;21.70;10.60;;;;;;;13.47;55.79;102152.41;5088620;28;20075;-46
2022/03/16 11:17:40;;;;;;;15.88;10.15;;;;;;;13.83;54.85;102169.97;5075398;28;20029;-46
2022/03/16 11:20:08;;;;;;;15.07;10.52;;;;;;;14.18;53.93;102162.47;5075971;28;20044;-45
2022/03/16 11:26:06;;;;;;;15.30;10.77;;;;;;;14.32;52.97;102165.47;5074326;28;20044;-46
2022/03/16 11:28:47;;;;;;;15.80;10.35;;;;;;;14.84;52.55;102173.06;5072632;28;20056;-45